sensor_id;sensor_type;location;lat;lon;timestamp;P1;durP1;ratioP1;P2;durP2;ratioP2
15398;SDS011;7797;51.428;6.756;2022-10-16T00:01:10;5.70;;;3.40;;
15398;SDS011;7797;51.428;6.756;2022-10-16T00:03:39;2.97;;;2.77;;
15398;SDS011;7797;51.428;6.756;2022-10-16T00:06:07;6.03;;;2.87;;
15398;SDS011;7797;51.428;6.756;2022-10-16T00:08:34;4.43;;;3.47;;
15398;SDS011;7797;51.428;6.756;2022-10-16T00:11:06;8.13;;;3.33;;
15398;SDS011;7797;51.428;6.756;2022-10-16T00:13:36;4.00;;;3.47;;
15398;SDS011;7797;51.428;6.756;2022-10-16T00:16:03;4.70;;;3.33;;
15398;SDS011;7797;51.428;6.756;2022-10-16T00:18:30;4.20;;;3.30;;
15398;SDS011;7797;51.428;6.756;2022-10-16T00:21:04;3.77;;;2.93;;
15398;SDS011;7797;51.428;6.756;2022-10-16T00:23:32;4.10;;;3.10;;
15398;SDS011;7797;51.428;6.756;2022-10-16T00:26:00;4.77;;;3.40;;
15398;SDS011;7797;51.428;6.756;2022-10-16T00:28:28;7.00;;;3.50;;
15398;SDS011;7797;51.428;6.756;2022-10-16T00:30:55;3.60;;;3.30;;
15398;SDS011;7797;51.428;6.756;2022-10-16T00:33:22;3.97;;;2.97;;
15398;SDS011;7797;51.428;6.756;2022-10-16T00:35:49;5.13;;;3.53;;
15398;SDS011;7797;51.428;6.756;2022-10-16T00:38:16;4.90;;;3.60;;
15398;SDS011;7797;51.428;6.756;2022-10-16T00:40:43;3.90;;;3.57;;
15398;SDS011;7797;51.428;6.756;2022-10-16T00:43:53;3.83;;;3.40;;
15398;SDS011;7797;51.428;6.756;2022-10-16T00:46:00;5.80;;;3.37;;
15398;SDS011;7797;51.428;6.756;2022-10-16T00:48:29;5.07;;;3.33;;
15398;SDS011;7797;51.428;6.756;2022-10-16T00:50:56;4.97;;;3.63;;
15398;SDS011;7797;51.428;6.756;2022-10-16T00:53:24;5.07;;;3.40;;
15398;SDS011;7797;51.428;6.756;2022-10-16T00:55:51;3.57;;;3.27;;
15398;SDS011;7797;51.428;6.756;2022-10-16T00:58:18;6.73;;;3.30;;
15398;SDS011;7797;51.428;6.756;2022-10-16T01:00:45;3.40;;;3.10;;
15398;SDS011;7797;51.428;6.756;2022-10-16T01:03:25;5.30;;;3.27;;
15398;SDS011;7797;51.428;6.756;2022-10-16T01:06:39;4.40;;;3.23;;
15398;SDS011;7797;51.428;6.756;2022-10-16T01:14:11;4.13;;;2.90;;
15398;SDS011;7797;51.428;6.756;2022-10-16T01:17:03;4.67;;;3.00;;
15398;SDS011;7797;51.428;6.756;2022-10-16T01:22:10;3.70;;;3.03;;
15398;SDS011;7797;51.428;6.756;2022-10-16T01:24:41;6.90;;;3.20;;
15398;SDS011;7797;51.428;6.756;2022-10-16T01:27:14;5.77;;;2.90;;
15398;SDS011;7797;51.428;6.756;2022-10-16T01:35:03;4.10;;;3.10;;
15398;SDS011;7797;51.428;6.756;2022-10-16T01:37:40;6.37;;;3.83;;
15398;SDS011;7797;51.428;6.756;2022-10-16T01:40:11;6.63;;;3.93;;
15398;SDS011;7797;51.428;6.756;2022-10-16T01:42:41;5.77;;;3.97;;
15398;SDS011;7797;51.428;6.756;2022-10-16T01:45:10;5.60;;;3.93;;
15398;SDS011;7797;51.428;6.756;2022-10-16T01:47:39;4.43;;;3.93;;
15398;SDS011;7797;51.428;6.756;2022-10-16T01:50:07;4.57;;;3.83;;
15398;SDS011;7797;51.428;6.756;2022-10-16T01:52:35;4.57;;;3.97;;
15398;SDS011;7797;51.428;6.756;2022-10-16T01:55:03;5.27;;;4.77;;
15398;SDS011;7797;51.428;6.756;2022-10-16T01:57:31;5.97;;;5.13;;
15398;SDS011;7797;51.428;6.756;2022-10-16T02:00:00;7.13;;;5.77;;
15398;SDS011;7797;51.428;6.756;2022-10-16T02:02:29;7.50;;;6.70;;
15398;SDS011;7797;51.428;6.756;2022-10-16T02:07:36;8.30;;;7.50;;
15398;SDS011;7797;51.428;6.756;2022-10-16T02:10:02;8.27;;;6.77;;
15398;SDS011;7797;51.428;6.756;2022-10-16T02:12:31;8.60;;;6.63;;
15398;SDS011;7797;51.428;6.756;2022-10-16T02:14:58;6.83;;;6.00;;
15398;SDS011;7797;51.428;6.756;2022-10-16T02:17:25;7.27;;;5.23;;
15398;SDS011;7797;51.428;6.756;2022-10-16T02:19:52;4.80;;;4.30;;
15398;SDS011;7797;51.428;6.756;2022-10-16T02:22:28;5.23;;;3.83;;
15398;SDS011;7797;51.428;6.756;2022-10-16T02:27:54;2.93;;;2.73;;
15398;SDS011;7797;51.428;6.756;2022-10-16T02:30:32;3.00;;;2.70;;
15398;SDS011;7797;51.428;6.756;2022-10-16T02:33:01;2.60;;;2.40;;
15398;SDS011;7797;51.428;6.756;2022-10-16T02:35:29;3.27;;;2.53;;
15398;SDS011;7797;51.428;6.756;2022-10-16T02:37:56;2.60;;;2.40;;
15398;SDS011;7797;51.428;6.756;2022-10-16T02:40:24;3.17;;;2.00;;
15398;SDS011;7797;51.428;6.756;2022-10-16T02:42:52;2.47;;;2.27;;
15398;SDS011;7797;51.428;6.756;2022-10-16T02:45:20;2.33;;;2.03;;
15398;SDS011;7797;51.428;6.756;2022-10-16T02:47:47;3.70;;;1.90;;
15398;SDS011;7797;51.428;6.756;2022-10-16T02:50:14;2.67;;;2.00;;
15398;SDS011;7797;51.428;6.756;2022-10-16T02:52:41;2.20;;;2.00;;
15398;SDS011;7797;51.428;6.756;2022-10-16T02:55:08;3.03;;;2.10;;
15398;SDS011;7797;51.428;6.756;2022-10-16T02:57:35;3.20;;;2.13;;
15398;SDS011;7797;51.428;6.756;2022-10-16T03:00:04;2.73;;;1.90;;
15398;SDS011;7797;51.428;6.756;2022-10-16T03:02:31;3.33;;;2.00;;
15398;SDS011;7797;51.428;6.756;2022-10-16T03:04:58;2.03;;;1.70;;
15398;SDS011;7797;51.428;6.756;2022-10-16T03:07:24;2.00;;;1.83;;
15398;SDS011;7797;51.428;6.756;2022-10-16T03:09:52;2.13;;;1.83;;
15398;SDS011;7797;51.428;6.756;2022-10-16T03:12:18;4.43;;;1.80;;
15398;SDS011;7797;51.428;6.756;2022-10-16T03:14:45;3.13;;;1.57;;
15398;SDS011;7797;51.428;6.756;2022-10-16T03:17:12;2.00;;;1.80;;
15398;SDS011;7797;51.428;6.756;2022-10-16T03:19:39;2.17;;;1.97;;
15398;SDS011;7797;51.428;6.756;2022-10-16T03:22:05;1.90;;;1.80;;
15398;SDS011;7797;51.428;6.756;2022-10-16T03:24:32;1.83;;;1.73;;
15398;SDS011;7797;51.428;6.756;2022-10-16T03:26:59;2.23;;;1.70;;
15398;SDS011;7797;51.428;6.756;2022-10-16T03:29:25;1.90;;;1.80;;
15398;SDS011;7797;51.428;6.756;2022-10-16T03:31:53;2.10;;;1.90;;
15398;SDS011;7797;51.428;6.756;2022-10-16T03:34:20;2.77;;;2.13;;
15398;SDS011;7797;51.428;6.756;2022-10-16T03:36:47;1.73;;;1.63;;
15398;SDS011;7797;51.428;6.756;2022-10-16T03:39:13;3.90;;;1.67;;
15398;SDS011;7797;51.428;6.756;2022-10-16T03:41:40;3.10;;;1.90;;
15398;SDS011;7797;51.428;6.756;2022-10-16T03:44:07;1.80;;;1.70;;
15398;SDS011;7797;51.428;6.756;2022-10-16T03:46:33;3.60;;;1.90;;
15398;SDS011;7797;51.428;6.756;2022-10-16T03:49:00;2.13;;;1.83;;
15398;SDS011;7797;51.428;6.756;2022-10-16T03:51:30;1.73;;;1.50;;
15398;SDS011;7797;51.428;6.756;2022-10-16T03:53:56;1.90;;;1.80;;
15398;SDS011;7797;51.428;6.756;2022-10-16T03:56:23;1.90;;;1.80;;
15398;SDS011;7797;51.428;6.756;2022-10-16T03:58:50;1.70;;;1.60;;
15398;SDS011;7797;51.428;6.756;2022-10-16T04:01:16;2.20;;;1.37;;
15398;SDS011;7797;51.428;6.756;2022-10-16T04:03:43;2.33;;;1.53;;
15398;SDS011;7797;51.428;6.756;2022-10-16T04:06:10;3.37;;;1.70;;
15398;SDS011;7797;51.428;6.756;2022-10-16T04:08:36;2.00;;;1.60;;
15398;SDS011;7797;51.428;6.756;2022-10-16T04:11:05;3.30;;;1.70;;
15398;SDS011;7797;51.428;6.756;2022-10-16T04:13:31;1.87;;;1.67;;
15398;SDS011;7797;51.428;6.756;2022-10-16T04:15:58;3.17;;;1.97;;
15398;SDS011;7797;51.428;6.756;2022-10-16T04:18:25;1.60;;;1.50;;
15398;SDS011;7797;51.428;6.756;2022-10-16T04:20:53;1.73;;;1.60;;
15398;SDS011;7797;51.428;6.756;2022-10-16T04:23:20;1.57;;;1.40;;
15398;SDS011;7797;51.428;6.756;2022-10-16T04:25:49;3.73;;;1.70;;
15398;SDS011;7797;51.428;6.756;2022-10-16T04:28:15;1.63;;;1.50;;
15398;SDS011;7797;51.428;6.756;2022-10-16T04:30:42;1.80;;;1.70;;
15398;SDS011;7797;51.428;6.756;2022-10-16T04:33:09;1.40;;;1.30;;
15398;SDS011;7797;51.428;6.756;2022-10-16T04:35:36;1.50;;;1.40;;
15398;SDS011;7797;51.428;6.756;2022-10-16T04:38:02;1.83;;;1.50;;
15398;SDS011;7797;51.428;6.756;2022-10-16T04:40:29;1.70;;;1.60;;
15398;SDS011;7797;51.428;6.756;2022-10-16T04:42:59;3.60;;;1.50;;
15398;SDS011;7797;51.428;6.756;2022-10-16T04:45:25;2.00;;;1.73;;
15398;SDS011;7797;51.428;6.756;2022-10-16T04:47:52;2.43;;;1.70;;
15398;SDS011;7797;51.428;6.756;2022-10-16T04:50:18;1.70;;;1.60;;
15398;SDS011;7797;51.428;6.756;2022-10-16T04:52:45;1.90;;;1.80;;
15398;SDS011;7797;51.428;6.756;2022-10-16T04:55:12;1.87;;;1.37;;
15398;SDS011;7797;51.428;6.756;2022-10-16T04:57:38;1.73;;;1.60;;
15398;SDS011;7797;51.428;6.756;2022-10-16T05:00:05;1.80;;;1.70;;
15398;SDS011;7797;51.428;6.756;2022-10-16T05:02:32;4.33;;;1.77;;
15398;SDS011;7797;51.428;6.756;2022-10-16T05:04:59;1.67;;;1.57;;
15398;SDS011;7797;51.428;6.756;2022-10-16T05:07:25;1.83;;;1.70;;
15398;SDS011;7797;51.428;6.756;2022-10-16T05:09:52;1.70;;;1.50;;
15398;SDS011;7797;51.428;6.756;2022-10-16T05:12:19;2.93;;;1.40;;
15398;SDS011;7797;51.428;6.756;2022-10-16T05:14:46;1.63;;;1.50;;
15398;SDS011;7797;51.428;6.756;2022-10-16T05:17:13;2.43;;;1.70;;
15398;SDS011;7797;51.428;6.756;2022-10-16T05:19:39;1.80;;;1.70;;
15398;SDS011;7797;51.428;6.756;2022-10-16T05:22:06;3.03;;;1.80;;
15398;SDS011;7797;51.428;6.756;2022-10-16T05:24:33;2.23;;;1.67;;
15398;SDS011;7797;51.428;6.756;2022-10-16T05:26:59;2.50;;;1.60;;
15398;SDS011;7797;51.428;6.756;2022-10-16T05:29:26;1.50;;;1.40;;
15398;SDS011;7797;51.428;6.756;2022-10-16T05:31:52;1.83;;;1.40;;
15398;SDS011;7797;51.428;6.756;2022-10-16T05:34:20;2.37;;;1.53;;
15398;SDS011;7797;51.428;6.756;2022-10-16T05:36:46;2.53;;;1.80;;
15398;SDS011;7797;51.428;6.756;2022-10-16T05:39:14;4.67;;;1.80;;
15398;SDS011;7797;51.428;6.756;2022-10-16T05:41:41;2.93;;;1.60;;
15398;SDS011;7797;51.428;6.756;2022-10-16T05:44:08;1.70;;;1.60;;
15398;SDS011;7797;51.428;6.756;2022-10-16T05:46:35;1.60;;;1.50;;
15398;SDS011;7797;51.428;6.756;2022-10-16T05:49:02;2.70;;;1.73;;
15398;SDS011;7797;51.428;6.756;2022-10-16T05:51:29;2.00;;;1.40;;
15398;SDS011;7797;51.428;6.756;2022-10-16T05:53:55;2.50;;;1.40;;
15398;SDS011;7797;51.428;6.756;2022-10-16T05:56:22;3.47;;;1.70;;
15398;SDS011;7797;51.428;6.756;2022-10-16T05:58:48;1.50;;;1.40;;
15398;SDS011;7797;51.428;6.756;2022-10-16T06:01:16;1.73;;;1.47;;
15398;SDS011;7797;51.428;6.756;2022-10-16T06:03:44;1.90;;;1.70;;
15398;SDS011;7797;51.428;6.756;2022-10-16T06:06:11;1.93;;;1.73;;
15398;SDS011;7797;51.428;6.756;2022-10-16T06:08:39;2.80;;;1.70;;
15398;SDS011;7797;51.428;6.756;2022-10-16T06:11:08;4.30;;;1.70;;
15398;SDS011;7797;51.428;6.756;2022-10-16T06:13:36;1.97;;;1.77;;
15398;SDS011;7797;51.428;6.756;2022-10-16T06:16:03;3.67;;;1.63;;
15398;SDS011;7797;51.428;6.756;2022-10-16T06:18:30;2.50;;;1.77;;
15398;SDS011;7797;51.428;6.756;2022-10-16T06:20:57;1.87;;;1.40;;
15398;SDS011;7797;51.428;6.756;2022-10-16T06:23:25;2.67;;;1.80;;
15398;SDS011;7797;51.428;6.756;2022-10-16T06:25:52;2.00;;;1.90;;
15398;SDS011;7797;51.428;6.756;2022-10-16T06:28:18;1.67;;;1.57;;
15398;SDS011;7797;51.428;6.756;2022-10-16T06:30:45;1.93;;;1.67;;
15398;SDS011;7797;51.428;6.756;2022-10-16T06:33:12;2.03;;;1.70;;
15398;SDS011;7797;51.428;6.756;2022-10-16T06:35:38;1.90;;;1.80;;
15398;SDS011;7797;51.428;6.756;2022-10-16T06:38:05;2.43;;;1.90;;
15398;SDS011;7797;51.428;6.756;2022-10-16T06:40:31;2.20;;;1.90;;
15398;SDS011;7797;51.428;6.756;2022-10-16T06:42:58;1.93;;;1.80;;
15398;SDS011;7797;51.428;6.756;2022-10-16T06:45:25;3.03;;;2.00;;
15398;SDS011;7797;51.428;6.756;2022-10-16T06:47:51;1.90;;;1.80;;
15398;SDS011;7797;51.428;6.756;2022-10-16T06:50:18;4.80;;;2.00;;
15398;SDS011;7797;51.428;6.756;2022-10-16T06:52:45;3.10;;;1.87;;
15398;SDS011;7797;51.428;6.756;2022-10-16T06:55:11;2.20;;;2.00;;
15398;SDS011;7797;51.428;6.756;2022-10-16T06:57:38;4.57;;;1.93;;
15398;SDS011;7797;51.428;6.756;2022-10-16T07:00:05;2.97;;;2.63;;
15398;SDS011;7797;51.428;6.756;2022-10-16T07:02:32;2.20;;;2.10;;
15398;SDS011;7797;51.428;6.756;2022-10-16T07:04:58;4.13;;;2.30;;
15398;SDS011;7797;51.428;6.756;2022-10-16T07:07:25;2.87;;;2.30;;
15398;SDS011;7797;51.428;6.756;2022-10-16T07:09:52;2.20;;;2.10;;
15398;SDS011;7797;51.428;6.756;2022-10-16T07:12:19;2.93;;;2.50;;
15398;SDS011;7797;51.428;6.756;2022-10-16T07:14:45;4.33;;;2.23;;
15398;SDS011;7797;51.428;6.756;2022-10-16T07:17:12;3.27;;;2.30;;
15398;SDS011;7797;51.428;6.756;2022-10-16T07:19:39;3.93;;;2.47;;
15398;SDS011;7797;51.428;6.756;2022-10-16T07:22:05;3.30;;;3.00;;
15398;SDS011;7797;51.428;6.756;2022-10-16T07:24:32;4.27;;;3.10;;
15398;SDS011;7797;51.428;6.756;2022-10-16T07:26:59;4.13;;;3.23;;
15398;SDS011;7797;51.428;6.756;2022-10-16T07:29:26;6.73;;;3.10;;
15398;SDS011;7797;51.428;6.756;2022-10-16T07:31:52;4.97;;;3.33;;
15398;SDS011;7797;51.428;6.756;2022-10-16T07:34:19;4.80;;;2.90;;
15398;SDS011;7797;51.428;6.756;2022-10-16T07:36:48;4.10;;;3.07;;
15398;SDS011;7797;51.428;6.756;2022-10-16T07:39:16;3.00;;;2.50;;
15398;SDS011;7797;51.428;6.756;2022-10-16T07:41:43;4.10;;;2.73;;
15398;SDS011;7797;51.428;6.756;2022-10-16T07:44:10;3.27;;;2.97;;
15398;SDS011;7797;51.428;6.756;2022-10-16T07:46:36;3.27;;;2.83;;
15398;SDS011;7797;51.428;6.756;2022-10-16T07:49:03;3.93;;;2.90;;
15398;SDS011;7797;51.428;6.756;2022-10-16T07:51:30;3.83;;;2.90;;
15398;SDS011;7797;51.428;6.756;2022-10-16T07:53:56;4.47;;;2.57;;
15398;SDS011;7797;51.428;6.756;2022-10-16T07:56:23;3.63;;;3.30;;
15398;SDS011;7797;51.428;6.756;2022-10-16T07:58:50;3.00;;;2.70;;
15398;SDS011;7797;51.428;6.756;2022-10-16T08:01:17;3.73;;;2.93;;
15398;SDS011;7797;51.428;6.756;2022-10-16T08:03:46;4.83;;;2.70;;
15398;SDS011;7797;51.428;6.756;2022-10-16T08:06:14;3.70;;;3.10;;
15398;SDS011;7797;51.428;6.756;2022-10-16T08:08:40;3.37;;;3.07;;
15398;SDS011;7797;51.428;6.756;2022-10-16T08:11:07;5.23;;;3.20;;
15398;SDS011;7797;51.428;6.756;2022-10-16T08:13:34;3.27;;;2.90;;
15398;SDS011;7797;51.428;6.756;2022-10-16T08:16:01;3.47;;;3.03;;
15398;SDS011;7797;51.428;6.756;2022-10-16T08:18:29;3.37;;;2.90;;
15398;SDS011;7797;51.428;6.756;2022-10-16T08:20:57;4.90;;;2.80;;
15398;SDS011;7797;51.428;6.756;2022-10-16T08:23:24;5.50;;;2.63;;
15398;SDS011;7797;51.428;6.756;2022-10-16T08:25:53;4.37;;;2.33;;
15398;SDS011;7797;51.428;6.756;2022-10-16T08:28:20;4.53;;;2.20;;
15398;SDS011;7797;51.428;6.756;2022-10-16T08:30:48;3.03;;;2.20;;
15398;SDS011;7797;51.428;6.756;2022-10-16T08:33:14;2.90;;;1.90;;
15398;SDS011;7797;51.428;6.756;2022-10-16T08:35:41;2.10;;;1.70;;
15398;SDS011;7797;51.428;6.756;2022-10-16T08:38:08;2.70;;;2.30;;
15398;SDS011;7797;51.428;6.756;2022-10-16T08:40:38;2.03;;;1.90;;
15398;SDS011;7797;51.428;6.756;2022-10-16T08:45:54;3.87;;;1.90;;
15398;SDS011;7797;51.428;6.756;2022-10-16T08:48:45;3.30;;;1.60;;
15398;SDS011;7797;51.428;6.756;2022-10-16T08:51:56;1.90;;;1.67;;
15398;SDS011;7797;51.428;6.756;2022-10-16T08:54:21;1.63;;;1.50;;
15398;SDS011;7797;51.428;6.756;2022-10-16T08:56:53;1.60;;;1.50;;
15398;SDS011;7797;51.428;6.756;2022-10-16T08:59:21;2.50;;;1.70;;
15398;SDS011;7797;51.428;6.756;2022-10-16T09:01:49;2.80;;;1.60;;
15398;SDS011;7797;51.428;6.756;2022-10-16T09:22:37;2.50;;;1.30;;
15398;SDS011;7797;51.428;6.756;2022-10-16T09:25:25;3.33;;;1.60;;
15398;SDS011;7797;51.428;6.756;2022-10-16T09:27:52;1.50;;;1.40;;
15398;SDS011;7797;51.428;6.756;2022-10-16T09:30:20;1.40;;;1.40;;
15398;SDS011;7797;51.428;6.756;2022-10-16T09:32:48;1.53;;;1.43;;
15398;SDS011;7797;51.428;6.756;2022-10-16T09:35:18;3.27;;;1.40;;
15398;SDS011;7797;51.428;6.756;2022-10-16T09:37:48;2.30;;;1.30;;
15398;SDS011;7797;51.428;6.756;2022-10-16T09:40:26;2.83;;;1.43;;
15398;SDS011;7797;51.428;6.756;2022-10-16T09:42:57;1.30;;;1.30;;
15398;SDS011;7797;51.428;6.756;2022-10-16T09:45:29;2.83;;;1.30;;
15398;SDS011;7797;51.428;6.756;2022-10-16T09:47:55;3.17;;;1.40;;
15398;SDS011;7797;51.428;6.756;2022-10-16T09:50:26;1.87;;;1.30;;
15398;SDS011;7797;51.428;6.756;2022-10-16T09:53:04;1.73;;;1.50;;
15398;SDS011;7797;51.428;6.756;2022-10-16T09:55:50;1.43;;;1.20;;
15398;SDS011;7797;51.428;6.756;2022-10-16T09:58:21;2.63;;;1.50;;
15398;SDS011;7797;51.428;6.756;2022-10-16T10:00:49;1.60;;;1.50;;
15398;SDS011;7797;51.428;6.756;2022-10-16T10:03:36;2.80;;;1.60;;
15398;SDS011;7797;51.428;6.756;2022-10-16T10:06:16;5.27;;;3.17;;
15398;SDS011;7797;51.428;6.756;2022-10-16T10:08:58;12.30;;;4.43;;
15398;SDS011;7797;51.428;6.756;2022-10-16T10:11:51;19.03;;;7.63;;
15398;SDS011;7797;51.428;6.756;2022-10-16T10:14:25;9.63;;;3.97;;
15398;SDS011;7797;51.428;6.756;2022-10-16T10:17:11;2.53;;;1.90;;
15398;SDS011;7797;51.428;6.756;2022-10-16T10:19:50;1.73;;;1.30;;
15398;SDS011;7797;51.428;6.756;2022-10-16T10:25:14;4.20;;;2.60;;
15398;SDS011;7797;51.428;6.756;2022-10-16T10:30:51;4.30;;;1.53;;
15398;SDS011;7797;51.428;6.756;2022-10-16T10:36:38;2.70;;;1.73;;
15398;SDS011;7797;51.428;6.756;2022-10-16T10:44:20;2.40;;;1.50;;
15398;SDS011;7797;51.428;6.756;2022-10-16T10:54:27;2.03;;;1.27;;
15398;SDS011;7797;51.428;6.756;2022-10-16T10:57:29;2.73;;;1.10;;
15398;SDS011;7797;51.428;6.756;2022-10-16T11:05:15;1.93;;;1.07;;
15398;SDS011;7797;51.428;6.756;2022-10-16T11:07:49;2.90;;;1.10;;
15398;SDS011;7797;51.428;6.756;2022-10-16T11:10:20;2.17;;;1.20;;
15398;SDS011;7797;51.428;6.756;2022-10-16T11:12:51;2.23;;;1.17;;
15398;SDS011;7797;51.428;6.756;2022-10-16T11:18:03;4.20;;;1.40;;
15398;SDS011;7797;51.428;6.756;2022-10-16T11:20:43;2.80;;;1.30;;
15398;SDS011;7797;51.428;6.756;2022-10-16T11:25:45;2.23;;;1.70;;
15398;SDS011;7797;51.428;6.756;2022-10-16T11:28:16;1.73;;;1.10;;
15398;SDS011;7797;51.428;6.756;2022-10-16T11:31:04;1.27;;;1.03;;
15398;SDS011;7797;51.428;6.756;2022-10-16T11:33:38;4.53;;;1.50;;
15398;SDS011;7797;51.428;6.756;2022-10-16T11:39:19;1.70;;;1.60;;
15398;SDS011;7797;51.428;6.756;2022-10-16T11:41:47;3.93;;;2.57;;
15398;SDS011;7797;51.428;6.756;2022-10-16T11:47:43;3.27;;;1.23;;
15398;SDS011;7797;51.428;6.756;2022-10-16T11:55:39;1.17;;;1.10;;
15398;SDS011;7797;51.428;6.756;2022-10-16T12:00:51;1.93;;;1.40;;
15398;SDS011;7797;51.428;6.756;2022-10-16T12:08:52;1.70;;;1.40;;
15398;SDS011;7797;51.428;6.756;2022-10-16T12:11:38;1.87;;;1.13;;
15398;SDS011;7797;51.428;6.756;2022-10-16T12:16:50;2.77;;;1.60;;
15398;SDS011;7797;51.428;6.756;2022-10-16T12:19:19;2.57;;;1.27;;
15398;SDS011;7797;51.428;6.756;2022-10-16T12:21:46;3.50;;;1.23;;
15398;SDS011;7797;51.428;6.756;2022-10-16T12:24:35;2.63;;;1.73;;
15398;SDS011;7797;51.428;6.756;2022-10-16T12:27:04;2.60;;;1.60;;
15398;SDS011;7797;51.428;6.756;2022-10-16T12:32:21;3.47;;;2.23;;
15398;SDS011;7797;51.428;6.756;2022-10-16T12:35:20;1.67;;;1.57;;
15398;SDS011;7797;51.428;6.756;2022-10-16T12:37:48;1.47;;;1.20;;
15398;SDS011;7797;51.428;6.756;2022-10-16T12:42:48;2.37;;;1.50;;
15398;SDS011;7797;51.428;6.756;2022-10-16T12:48:19;2.40;;;1.50;;
15398;SDS011;7797;51.428;6.756;2022-10-16T12:50:57;1.20;;;0.97;;
15398;SDS011;7797;51.428;6.756;2022-10-16T12:53:36;1.77;;;1.57;;
15398;SDS011;7797;51.428;6.756;2022-10-16T12:56:15;2.63;;;1.70;;
15398;SDS011;7797;51.428;6.756;2022-10-16T12:58:51;1.87;;;1.30;;
15398;SDS011;7797;51.428;6.756;2022-10-16T13:01:36;2.50;;;1.30;;
15398;SDS011;7797;51.428;6.756;2022-10-16T13:13:19;1.67;;;1.33;;
15398;SDS011;7797;51.428;6.756;2022-10-16T13:18:14;1.87;;;1.10;;
15398;SDS011;7797;51.428;6.756;2022-10-16T13:26:09;3.93;;;1.40;;
15398;SDS011;7797;51.428;6.756;2022-10-16T13:28:50;2.33;;;1.07;;
15398;SDS011;7797;51.428;6.756;2022-10-16T13:31:19;2.93;;;1.17;;
15398;SDS011;7797;51.428;6.756;2022-10-16T13:33:47;3.07;;;1.20;;
15398;SDS011;7797;51.428;6.756;2022-10-16T13:36:26;1.43;;;1.23;;
15398;SDS011;7797;51.428;6.756;2022-10-16T13:39:01;1.50;;;1.20;;
15398;SDS011;7797;51.428;6.756;2022-10-16T13:41:35;3.67;;;1.50;;
15398;SDS011;7797;51.428;6.756;2022-10-16T13:44:02;2.57;;;1.70;;
15398;SDS011;7797;51.428;6.756;2022-10-16T13:46:29;5.33;;;2.10;;
15398;SDS011;7797;51.428;6.756;2022-10-16T13:49:04;2.27;;;1.93;;
15398;SDS011;7797;51.428;6.756;2022-10-16T13:51:36;3.73;;;1.90;;
15398;SDS011;7797;51.428;6.756;2022-10-16T13:54:03;2.73;;;2.10;;
15398;SDS011;7797;51.428;6.756;2022-10-16T13:56:30;2.50;;;2.10;;
15398;SDS011;7797;51.428;6.756;2022-10-16T13:58:59;2.00;;;1.73;;
15398;SDS011;7797;51.428;6.756;2022-10-16T14:01:33;2.67;;;1.40;;
15398;SDS011;7797;51.428;6.756;2022-10-16T14:04:05;1.10;;;1.10;;
15398;SDS011;7797;51.428;6.756;2022-10-16T14:06:34;2.03;;;1.10;;
15398;SDS011;7797;51.428;6.756;2022-10-16T14:09:12;2.00;;;1.60;;
15398;SDS011;7797;51.428;6.756;2022-10-16T14:11:54;1.60;;;1.13;;
15398;SDS011;7797;51.428;6.756;2022-10-16T14:14:22;3.73;;;1.40;;
15398;SDS011;7797;51.428;6.756;2022-10-16T14:16:49;3.03;;;1.40;;
15398;SDS011;7797;51.428;6.756;2022-10-16T14:19:22;4.10;;;1.17;;
15398;SDS011;7797;51.428;6.756;2022-10-16T14:21:51;2.13;;;1.70;;
15398;SDS011;7797;51.428;6.756;2022-10-16T14:26:57;2.33;;;1.93;;
15398;SDS011;7797;51.428;6.756;2022-10-16T14:29:25;2.93;;;1.97;;
15398;SDS011;7797;51.428;6.756;2022-10-16T14:32:00;1.60;;;1.50;;
15398;SDS011;7797;51.428;6.756;2022-10-16T14:34:35;3.50;;;1.30;;
15398;SDS011;7797;51.428;6.756;2022-10-16T14:37:14;2.50;;;1.17;;
15398;SDS011;7797;51.428;6.756;2022-10-16T14:39:53;1.17;;;1.07;;
15398;SDS011;7797;51.428;6.756;2022-10-16T14:42:21;1.50;;;1.17;;
15398;SDS011;7797;51.428;6.756;2022-10-16T14:44:50;1.50;;;1.40;;
15398;SDS011;7797;51.428;6.756;2022-10-16T14:47:22;1.37;;;1.17;;
15398;SDS011;7797;51.428;6.756;2022-10-16T14:49:53;1.63;;;1.37;;
15398;SDS011;7797;51.428;6.756;2022-10-16T14:52:22;2.47;;;1.60;;
15398;SDS011;7797;51.428;6.756;2022-10-16T14:54:48;3.00;;;1.60;;
15398;SDS011;7797;51.428;6.756;2022-10-16T14:57:19;2.50;;;1.03;;
15398;SDS011;7797;51.428;6.756;2022-10-16T14:59:49;2.53;;;1.50;;
15398;SDS011;7797;51.428;6.756;2022-10-16T15:04:50;6.07;;;5.47;;
15398;SDS011;7797;51.428;6.756;2022-10-16T15:07:17;7.27;;;5.20;;
15398;SDS011;7797;51.428;6.756;2022-10-16T15:09:44;3.03;;;1.87;;
15398;SDS011;7797;51.428;6.756;2022-10-16T15:12:14;3.33;;;2.07;;
15398;SDS011;7797;51.428;6.756;2022-10-16T15:14:41;4.37;;;2.70;;
15398;SDS011;7797;51.428;6.756;2022-10-16T15:17:09;6.63;;;5.93;;
15398;SDS011;7797;51.428;6.756;2022-10-16T15:19:36;2.23;;;2.00;;
15398;SDS011;7797;51.428;6.756;2022-10-16T15:22:03;3.67;;;2.10;;
15398;SDS011;7797;51.428;6.756;2022-10-16T15:24:31;4.10;;;2.30;;
15398;SDS011;7797;51.428;6.756;2022-10-16T15:26:58;3.87;;;3.20;;
15398;SDS011;7797;51.428;6.756;2022-10-16T15:29:24;6.23;;;4.80;;
15398;SDS011;7797;51.428;6.756;2022-10-16T15:31:51;5.60;;;4.47;;
15398;SDS011;7797;51.428;6.756;2022-10-16T15:34:17;4.63;;;3.30;;
15398;SDS011;7797;51.428;6.756;2022-10-16T15:36:45;6.47;;;4.07;;
15398;SDS011;7797;51.428;6.756;2022-10-16T15:39:13;4.80;;;3.60;;
15398;SDS011;7797;51.428;6.756;2022-10-16T15:41:42;5.63;;;3.60;;
15398;SDS011;7797;51.428;6.756;2022-10-16T15:44:09;5.03;;;3.97;;
15398;SDS011;7797;51.428;6.756;2022-10-16T15:46:35;4.97;;;3.93;;
15398;SDS011;7797;51.428;6.756;2022-10-16T15:49:03;4.63;;;3.43;;
15398;SDS011;7797;51.428;6.756;2022-10-16T15:51:30;7.40;;;4.57;;
15398;SDS011;7797;51.428;6.756;2022-10-16T15:53:59;3.80;;;3.50;;
15398;SDS011;7797;51.428;6.756;2022-10-16T15:56:28;5.73;;;3.17;;
15398;SDS011;7797;51.428;6.756;2022-10-16T15:58:55;4.80;;;3.23;;
15398;SDS011;7797;51.428;6.756;2022-10-16T16:01:23;6.00;;;3.27;;
15398;SDS011;7797;51.428;6.756;2022-10-16T16:03:53;5.23;;;3.00;;
15398;SDS011;7797;51.428;6.756;2022-10-16T16:06:20;4.90;;;2.73;;
15398;SDS011;7797;51.428;6.756;2022-10-16T16:08:47;3.17;;;2.87;;
15398;SDS011;7797;51.428;6.756;2022-10-16T16:11:14;4.97;;;2.87;;
15398;SDS011;7797;51.428;6.756;2022-10-16T16:13:42;3.23;;;2.50;;
15398;SDS011;7797;51.428;6.756;2022-10-16T16:16:13;3.60;;;2.60;;
15398;SDS011;7797;51.428;6.756;2022-10-16T16:18:41;4.67;;;2.60;;
15398;SDS011;7797;51.428;6.756;2022-10-16T16:21:09;4.60;;;2.40;;
15398;SDS011;7797;51.428;6.756;2022-10-16T16:23:37;6.83;;;2.83;;
15398;SDS011;7797;51.428;6.756;2022-10-16T16:26:04;4.33;;;2.83;;
15398;SDS011;7797;51.428;6.756;2022-10-16T16:28:40;4.87;;;3.10;;
15398;SDS011;7797;51.428;6.756;2022-10-16T16:31:08;5.87;;;2.87;;
15398;SDS011;7797;51.428;6.756;2022-10-16T16:33:35;3.23;;;2.67;;
15398;SDS011;7797;51.428;6.756;2022-10-16T16:36:02;3.23;;;2.60;;
15398;SDS011;7797;51.428;6.756;2022-10-16T16:38:36;7.27;;;2.87;;
15398;SDS011;7797;51.428;6.756;2022-10-16T16:43:40;4.40;;;2.83;;
15398;SDS011;7797;51.428;6.756;2022-10-16T16:46:06;4.57;;;3.00;;
15398;SDS011;7797;51.428;6.756;2022-10-16T16:48:33;4.83;;;3.20;;
15398;SDS011;7797;51.428;6.756;2022-10-16T16:53:56;3.80;;;3.40;;
15398;SDS011;7797;51.428;6.756;2022-10-16T16:56:23;5.00;;;3.10;;
15398;SDS011;7797;51.428;6.756;2022-10-16T16:58:56;6.57;;;3.30;;
15398;SDS011;7797;51.428;6.756;2022-10-16T17:01:24;6.87;;;3.80;;
15398;SDS011;7797;51.428;6.756;2022-10-16T17:03:52;6.20;;;4.33;;
15398;SDS011;7797;51.428;6.756;2022-10-16T17:06:20;6.30;;;4.40;;
15398;SDS011;7797;51.428;6.756;2022-10-16T17:08:48;5.63;;;3.90;;
15398;SDS011;7797;51.428;6.756;2022-10-16T17:11:17;5.97;;;3.90;;
15398;SDS011;7797;51.428;6.756;2022-10-16T17:13:48;6.07;;;3.87;;
15398;SDS011;7797;51.428;6.756;2022-10-16T17:16:23;4.20;;;3.30;;
15398;SDS011;7797;51.428;6.756;2022-10-16T17:18:51;3.23;;;2.93;;
15398;SDS011;7797;51.428;6.756;2022-10-16T17:21:19;6.47;;;5.60;;
15398;SDS011;7797;51.428;6.756;2022-10-16T17:23:46;7.40;;;4.70;;
15398;SDS011;7797;51.428;6.756;2022-10-16T17:26:13;10.67;;;7.30;;